createdAt,value
2018-09-20T00:00:26.450Z,100156.09
2018-09-20T00:00:57.578Z,100155.69
2018-09-20T00:01:28.687Z,100157.84
2018-09-20T00:01:59.865Z,100155.75
2018-09-20T00:02:30.978Z,100155.79
2018-09-20T00:03:02.131Z,100151.41
2018-09-20T00:03:33.286Z,100154.06
2018-09-20T00:04:04.466Z,100154.78
2018-09-20T00:04:35.593Z,100148.94
2018-09-20T00:05:06.712Z,100151.30
2018-09-20T00:05:37.884Z,100150.55
2018-09-20T00:06:09.018Z,100148.90
2018-09-20T00:06:40.211Z,100150.34
2018-09-20T00:07:11.388Z,100146.41
2018-09-20T00:07:42.609Z,100144.18
2018-09-20T00:08:13.795Z,100145.94
2018-09-20T00:08:44.935Z,100147.65
2018-09-20T00:09:16.050Z,100146.34
2018-09-20T00:09:47.259Z,100147.52
2018-09-20T00:10:18.380Z,100147.98
2018-09-20T00:10:49.511Z,100152.41
2018-09-20T00:11:20.700Z,100139.36
2018-09-20T00:11:51.872Z,100143.70
2018-09-20T00:12:23.005Z,100141.98
2018-09-20T00:12:54.123Z,100148.16
2018-09-20T00:13:25.241Z,100140.27
2018-09-20T00:13:56.404Z,100138.52
2018-09-20T00:14:27.531Z,100136.80
2018-09-20T00:14:58.664Z,100136.33
2018-09-20T00:15:29.869Z,100137.64
2018-09-20T00:16:00.976Z,100142.89
2018-09-20T00:16:32.191Z,100139.36
2018-09-20T00:17:03.425Z,100138.52
2018-09-20T00:17:34.648Z,100136.33
2018-09-20T00:18:05.772Z,100138.17
2018-09-20T00:18:36.925Z,100135.98
2018-09-20T00:19:08.046Z,100136.05
2018-09-20T00:19:39.209Z,100135.24
2018-09-20T00:20:10.392Z,100138.44
2018-09-20T00:20:41.514Z,100133.38
2018-09-20T00:21:12.702Z,100137.39
2018-09-20T00:21:43.931Z,100141.26
2018-09-20T00:22:15.065Z,100136.57
2018-09-20T00:22:46.173Z,100133.57
2018-09-20T00:23:17.310Z,100136.20
2018-09-20T00:23:48.405Z,100133.16
2018-09-20T00:24:19.535Z,100132.35
2018-09-20T00:24:50.691Z,100130.70
2018-09-20T00:25:21.819Z,100127.63
2018-09-20T00:25:53.052Z,100132.92
2018-09-20T00:26:24.224Z,100129.58
2018-09-20T00:26:55.459Z,100134.08
2018-09-20T00:27:26.560Z,100130.17
2018-09-20T00:27:57.672Z,100130.70
2018-09-20T00:28:28.843Z,100130.30
2018-09-20T00:28:59.961Z,100129.89
2018-09-20T00:29:31.118Z,100132.92
2018-09-20T00:30:02.309Z,100135.15
2018-09-20T00:30:33.443Z,100133.08
2018-09-20T00:31:04.549Z,100137.09
2018-09-20T00:31:35.713Z,100129.77
2018-09-20T00:32:06.839Z,100131.99
2018-09-20T00:32:37.962Z,100131.15
2018-09-20T00:33:09.099Z,100136.84
2018-09-20T00:33:40.239Z,100129.92
2018-09-20T00:34:11.509Z,100135.24
2018-09-20T00:34:42.690Z,100136.27
2018-09-20T00:35:13.853Z,100137.27
2018-09-20T00:35:44.981Z,100136.02
2018-09-20T00:36:16.127Z,100132.64
2018-09-20T00:36:47.228Z,100136.98
2018-09-20T00:37:18.398Z,100138.36
2018-09-20T00:37:49.585Z,100136.64
2018-09-20T00:38:20.758Z,100133.20
2018-09-20T00:38:51.871Z,100135.05
2018-09-20T00:39:23.045Z,100138.70
2018-09-20T00:39:54.121Z,100136.63
2018-09-20T00:40:25.295Z,100132.78
2018-09-20T00:40:56.475Z,100132.03
2018-09-20T00:41:27.613Z,100133.88
2018-09-20T00:41:58.740Z,100130.02
2018-09-20T00:42:29.910Z,100138.92
2018-09-20T00:43:01.037Z,100138.16
2018-09-20T00:43:32.217Z,100129.94
2018-09-20T00:44:03.414Z,100133.53
2018-09-20T00:44:34.604Z,100134.48
2018-09-20T00:45:05.710Z,100136.77
2018-09-20T00:45:36.820Z,100133.27
2018-09-20T00:46:07.927Z,100130.76
2018-09-20T00:46:39.119Z,100140.78
2018-09-20T00:47:10.239Z,100135.48
2018-09-20T00:47:41.343Z,100133.79
2018-09-20T00:48:12.472Z,100132.02
2018-09-20T00:48:43.576Z,100136.79
2018-09-20T00:49:14.720Z,100135.48
2018-09-20T00:49:45.832Z,100136.35
2018-09-20T00:50:16.970Z,100134.16
2018-09-20T00:50:48.086Z,100136.79
2018-09-20T00:51:19.218Z,100132.86
2018-09-20T00:51:50.365Z,100135.39
2018-09-20T00:52:21.544Z,100137.11
2018-09-20T00:52:52.715Z,100134.38
2018-09-20T00:53:23.823Z,100131.34
2018-09-20T00:53:54.936Z,100134.78
2018-09-20T00:54:26.106Z,100135.19
2018-09-20T00:54:57.254Z,100134.72
2018-09-20T00:55:28.384Z,100134.72
2018-09-20T00:55:59.545Z,100136.91
2018-09-20T00:56:30.650Z,100134.31
2018-09-20T00:57:01.775Z,100133.41
2018-09-20T00:57:32.965Z,100138.30
2018-09-20T00:58:04.141Z,100133.59
2018-09-20T00:58:35.251Z,100137.95
2018-09-20T00:59:06.411Z,100137.55
2018-09-20T00:59:37.535Z,100136.70
2018-09-20T01:00:08.681Z,100131.95
2018-09-20T01:00:39.867Z,100138.57
2018-09-20T01:01:11.002Z,100137.31
2018-09-20T01:01:42.116Z,100134.38
2018-09-20T01:02:13.228Z,100135.80
2018-09-20T01:02:44.432Z,100130.61
2018-09-20T01:03:15.649Z,100135.39
2018-09-20T01:03:46.813Z,100139.84
2018-09-20T01:04:17.915Z,100132.97
2018-09-20T01:04:49.079Z,100133.49
2018-09-20T01:05:20.241Z,100134.83
2018-09-20T01:05:51.368Z,100133.98
2018-09-20T01:06:22.558Z,100134.42
2018-09-20T01:06:53.673Z,100130.88
2018-09-20T01:07:24.807Z,100133.38
2018-09-20T01:07:55.971Z,100132.41
2018-09-20T01:08:27.098Z,100132.36
2018-09-20T01:08:58.216Z,100131.45
2018-09-20T01:09:29.355Z,100129.65
2018-09-20T01:10:00.473Z,100128.22
2018-09-20T01:10:31.589Z,100127.25
2018-09-20T01:11:02.743Z,100124.98
2018-09-20T01:11:33.977Z,100127.61
2018-09-20T01:12:05.092Z,100130.23
2018-09-20T01:12:36.199Z,100124.55
2018-09-20T01:13:07.294Z,100130.64
2018-09-20T01:13:38.422Z,100128.91
2018-09-20T01:14:09.614Z,100135.48
2018-09-20T01:14:40.720Z,100130.23
2018-09-20T01:15:11.828Z,100132.42
2018-09-20T01:15:42.935Z,100130.23
2018-09-20T01:16:14.179Z,100129.39
2018-09-20T01:16:45.318Z,100135.10
2018-09-20T01:17:16.504Z,100134.69
2018-09-20T01:17:47.609Z,100134.75
2018-09-20T01:18:18.719Z,100134.78
2018-09-20T01:18:49.853Z,100130.43
2018-09-20T01:19:20.993Z,100133.99
2018-09-20T01:19:52.099Z,100134.08
2018-09-20T01:20:23.202Z,100137.72
2018-09-20T01:20:54.307Z,100133.84
2018-09-20T01:21:25.542Z,100131.66
2018-09-20T01:21:56.692Z,100130.40
2018-09-20T01:22:27.870Z,100134.80
2018-09-20T01:22:58.995Z,100131.77
2018-09-20T01:23:30.123Z,100130.05
2018-09-20T01:24:01.225Z,100131.77
2018-09-20T01:24:32.416Z,100133.87
2018-09-20T01:25:03.546Z,100133.52
2018-09-20T01:25:34.672Z,100127.42
2018-09-20T01:26:05.856Z,100131.36
2018-09-20T01:26:37.026Z,100137.02
2018-09-20T01:27:08.164Z,100133.11
2018-09-20T01:27:39.349Z,100130.54
2018-09-20T01:28:10.460Z,100128.35
2018-09-20T01:28:41.592Z,100131.41
2018-09-20T01:29:12.701Z,100127.92
2018-09-20T01:29:43.838Z,100130.95
2018-09-20T01:30:14.952Z,100126.61
2018-09-20T01:30:46.070Z,100134.89
2018-09-20T01:31:17.176Z,100127.86
2018-09-20T01:31:48.274Z,100128.33
2018-09-20T01:32:19.412Z,100129.64
2018-09-20T01:32:50.556Z,100133.16
2018-09-20T01:33:21.776Z,100127.48
2018-09-20T01:33:52.960Z,100123.17
2018-09-20T01:34:24.134Z,100128.00
2018-09-20T01:34:55.308Z,100130.77
2018-09-20T01:35:26.513Z,100127.38
2018-09-20T01:35:57.628Z,100130.12
2018-09-20T01:36:28.790Z,100128.89
2018-09-20T01:36:59.941Z,100127.69
2018-09-20T01:37:31.169Z,100125.97
2018-09-20T01:38:02.278Z,100128.94
2018-09-20T01:38:33.406Z,100128.09
2018-09-20T01:39:04.573Z,100128.59
2018-09-20T01:39:35.692Z,100132.58
2018-09-20T01:40:06.811Z,100129.61
2018-09-20T01:40:37.911Z,100121.73
2018-09-20T01:41:09.037Z,100133.56
2018-09-20T01:41:40.145Z,100132.71
2018-09-20T01:42:11.277Z,100134.08
2018-09-20T01:42:42.472Z,100126.65
2018-09-20T01:43:13.590Z,100130.17
2018-09-20T01:43:44.760Z,100130.69
2018-09-20T01:44:15.911Z,100132.06
2018-09-20T01:44:47.031Z,100128.13
2018-09-20T01:45:18.131Z,100128.56
2018-09-20T01:45:49.300Z,100131.13
2018-09-20T01:46:20.467Z,100134.69
2018-09-20T01:46:51.587Z,100127.30
2018-09-20T01:47:22.711Z,100135.17
2018-09-20T01:47:53.935Z,100136.13
2018-09-20T01:48:25.121Z,100138.34
2018-09-20T01:48:56.267Z,100137.44
2018-09-20T01:49:27.371Z,100137.03
2018-09-20T01:49:58.540Z,100129.66
2018-09-20T01:50:29.709Z,100134.41
2018-09-20T01:51:00.881Z,100127.97
2018-09-20T01:51:32.016Z,100137.98
2018-09-20T01:52:03.191Z,100133.20
2018-09-20T01:52:34.341Z,100131.89
2018-09-20T01:53:05.443Z,100137.14
2018-09-20T01:53:36.579Z,100135.01
2018-09-20T01:54:07.711Z,100131.07
2018-09-20T01:54:38.901Z,100136.31
2018-09-20T01:55:10.049Z,100135.06
2018-09-20T01:55:41.193Z,100130.77
2018-09-20T01:56:12.393Z,100132.08
2018-09-20T01:56:43.526Z,100134.30
2018-09-20T01:57:14.691Z,100134.30
2018-09-20T01:57:45.855Z,100129.54
2018-09-20T01:58:16.967Z,100128.28
2018-09-20T01:58:48.104Z,100128.72
2018-09-20T01:59:19.229Z,100134.42
2018-09-20T01:59:50.347Z,100127.41
2018-09-20T02:00:21.466Z,100127.41
2018-09-20T02:00:52.641Z,100124.30
2018-09-20T02:01:23.763Z,100126.51
2018-09-20T02:01:54.905Z,100130.85
2018-09-20T02:02:26.015Z,100128.72
2018-09-20T02:02:57.195Z,100132.27
2018-09-20T02:03:28.307Z,100130.14
2018-09-20T02:03:59.478Z,100128.00
2018-09-20T02:04:30.611Z,100127.63
2018-09-20T02:05:01.736Z,100128.94
2018-09-20T02:05:32.859Z,100127.63
2018-09-20T02:06:04.070Z,100124.13
2018-09-20T02:06:35.281Z,100126.80
2018-09-20T02:07:06.479Z,100127.28
2018-09-20T02:07:37.618Z,100125.63
2018-09-20T02:08:08.731Z,100123.88
2018-09-20T02:08:39.848Z,100129.86
2018-09-20T02:09:11.013Z,100123.28
2018-09-20T02:09:42.140Z,100092.34
2018-09-20T02:10:13.313Z,100122.88
2018-09-20T02:10:44.432Z,100129.42
2018-09-20T02:11:15.651Z,100127.70
2018-09-20T02:11:46.838Z,100125.49
2018-09-20T02:12:17.968Z,100118.45
2018-09-20T02:12:49.090Z,100121.45
2018-09-20T02:13:20.226Z,100124.84
2018-09-20T02:13:51.403Z,100126.51
2018-09-20T02:14:22.538Z,100123.47
2018-09-20T02:14:53.659Z,100119.55
2018-09-20T02:15:24.781Z,100124.78
2018-09-20T02:15:55.914Z,100116.92
2018-09-20T02:16:27.087Z,100123.09
2018-09-20T02:16:58.236Z,100118.23
2018-09-20T02:17:29.357Z,100110.84
2018-09-20T02:18:00.478Z,100114.36
2018-09-20T02:18:31.578Z,100117.50
2018-09-20T02:19:02.811Z,100115.83
2018-09-20T02:19:33.984Z,100111.08
2018-09-20T02:20:05.100Z,100110.61
2018-09-20T02:20:36.261Z,100112.39
2018-09-20T02:21:07.488Z,100109.82
2018-09-20T02:21:38.653Z,100112.98
2018-09-20T02:22:09.772Z,100114.30
2018-09-20T02:22:40.872Z,100113.95
2018-09-20T02:23:12.077Z,100109.19
2018-09-20T02:23:43.237Z,100111.67
2018-09-20T02:24:14.411Z,100110.26
2018-09-20T02:24:45.578Z,100106.79
2018-09-20T02:25:16.817Z,100110.20
2018-09-20T02:25:47.950Z,100112.82
2018-09-20T02:26:19.060Z,100104.04
2018-09-20T02:26:50.234Z,100108.35
2018-09-20T02:27:21.416Z,100110.00
2018-09-20T02:27:52.580Z,100107.32
2018-09-20T02:28:23.758Z,100112.42
2018-09-20T02:28:54.854Z,100107.12
2018-09-20T02:29:25.983Z,100112.38
2018-09-20T02:29:57.109Z,100109.39
2018-09-20T02:30:28.279Z,100115.95
2018-09-20T02:30:59.422Z,100110.65
2018-09-20T02:31:30.528Z,100111.49
2018-09-20T02:32:01.647Z,100111.91
2018-09-20T02:32:32.834Z,100109.75
2018-09-20T02:33:03.951Z,100115.84
2018-09-20T02:33:35.174Z,100114.64
2018-09-20T02:34:06.349Z,100112.50
2018-09-20T02:34:37.512Z,100112.99
2018-09-20T02:35:08.628Z,100115.23
2018-09-20T02:35:39.762Z,100117.39
2018-09-20T02:36:10.963Z,100114.41
2018-09-20T02:36:42.072Z,100115.31
2018-09-20T02:37:13.200Z,100121.45
2018-09-20T02:37:44.337Z,100118.94
2018-09-20T02:38:15.466Z,100118.12
2018-09-20T02:38:46.669Z,100120.33
2018-09-20T02:39:17.861Z,100120.33
2018-09-20T02:39:49.004Z,100116.02
2018-09-20T02:40:20.167Z,100114.73
2018-09-20T02:40:51.341Z,100118.30
2018-09-20T02:41:22.478Z,100116.20
2018-09-20T02:41:53.643Z,100118.82
2018-09-20T02:42:24.770Z,100120.16
2018-09-20T02:42:55.923Z,100114.48
2018-09-20T02:43:27.096Z,100114.06
2018-09-20T02:43:58.246Z,100127.22
2018-09-20T02:44:29.398Z,100122.41
2018-09-20T02:45:00.523Z,100124.13
2018-09-20T02:45:31.747Z,100121.46
2018-09-20T02:46:02.914Z,100121.98
2018-09-20T02:46:34.078Z,100118.95
2018-09-20T02:47:05.211Z,100126.34
2018-09-20T02:47:36.357Z,100125.55
2018-09-20T02:48:07.510Z,100119.80
2018-09-20T02:48:38.636Z,100121.52
2018-09-20T02:49:09.790Z,100123.30
2018-09-20T02:49:41.000Z,100121.98
2018-09-20T02:50:12.185Z,100122.00
2018-09-20T02:50:43.317Z,100127.34
2018-09-20T02:51:14.485Z,100122.16
2018-09-20T02:51:45.680Z,100121.75
2018-09-20T02:52:16.793Z,100119.67
2018-09-20T02:52:47.912Z,100123.59
2018-09-20T02:53:19.040Z,100123.19
2018-09-20T02:53:50.160Z,100120.16
2018-09-20T02:54:21.331Z,100121.46
2018-09-20T02:54:52.440Z,100123.70
2018-09-20T02:55:23.565Z,100125.14
2018-09-20T02:55:54.704Z,100120.80
2018-09-20T02:56:25.880Z,100127.81
2018-09-20T02:56:57.027Z,100127.39
2018-09-20T02:57:28.197Z,100127.39
2018-09-20T02:57:59.365Z,100126.57
2018-09-20T02:58:30.476Z,100125.31
2018-09-20T02:59:01.717Z,100124.44
2018-09-20T02:59:32.811Z,100129.67
2018-09-20T03:00:03.928Z,100130.98
2018-09-20T03:00:35.105Z,100130.19
2018-09-20T03:01:06.218Z,100130.19
2018-09-20T03:01:37.437Z,100129.78
2018-09-20T03:02:08.592Z,100130.19
2018-09-20T03:02:39.734Z,100130.19
2018-09-20T03:03:10.920Z,100127.93
2018-09-20T03:03:42.039Z,100127.05
2018-09-20T03:04:13.295Z,100133.12
2018-09-20T03:04:44.418Z,100130.14
2018-09-20T03:05:15.523Z,100135.84
2018-09-20T03:05:46.665Z,100130.67
2018-09-20T03:06:17.797Z,100129.88
2018-09-20T03:06:48.922Z,100137.73
2018-09-20T03:07:20.158Z,100134.34
2018-09-20T03:07:51.333Z,100138.29
2018-09-20T03:08:22.465Z,100134.00
2018-09-20T03:08:53.598Z,100137.13
2018-09-20T03:09:24.740Z,100132.37
2018-09-20T03:09:55.922Z,100137.56
2018-09-20T03:10:27.037Z,100136.78
2018-09-20T03:10:58.140Z,100134.69
2018-09-20T03:11:29.340Z,100137.31
2018-09-20T03:12:00.498Z,100137.78
2018-09-20T03:12:31.647Z,100135.63
2018-09-20T03:13:02.774Z,100139.11
2018-09-20T03:13:33.884Z,100134.30
2018-09-20T03:14:04.998Z,100140.41
2018-09-20T03:14:36.168Z,100140.42
2018-09-20T03:15:07.315Z,100133.00
2018-09-20T03:15:38.428Z,100132.15
2018-09-20T03:16:09.589Z,100136.48
2018-09-20T03:16:40.722Z,100136.08
2018-09-20T03:17:11.840Z,100136.54
2018-09-20T03:17:42.985Z,100135.66
2018-09-20T03:18:14.117Z,100136.94
2018-09-20T03:18:45.229Z,100135.11
2018-09-20T03:19:16.462Z,100139.50
2018-09-20T03:19:47.579Z,100131.66
2018-09-20T03:20:18.734Z,100137.73
2018-09-20T03:20:49.867Z,100136.01
2018-09-20T03:21:21.039Z,100138.25
2018-09-20T03:21:52.198Z,100135.18
2018-09-20T03:22:23.367Z,100133.45
2018-09-20T03:22:54.501Z,100134.35
2018-09-20T03:23:25.730Z,100137.02
2018-09-20T03:23:56.913Z,100131.83
2018-09-20T03:24:28.038Z,100133.56
2018-09-20T03:24:59.138Z,100136.61
2018-09-20T03:25:30.311Z,100130.11
2018-09-20T03:26:01.438Z,100130.94
2018-09-20T03:26:32.653Z,100136.97
2018-09-20T03:27:03.858Z,100132.15
2018-09-20T03:27:34.977Z,100132.55
2018-09-20T03:28:06.214Z,100138.56
2018-09-20T03:28:37.360Z,100129.45
2018-09-20T03:29:08.478Z,100131.60
2018-09-20T03:29:39.614Z,100128.16
2018-09-20T03:30:10.749Z,100130.77
2018-09-20T03:30:41.928Z,100129.95
2018-09-20T03:31:13.009Z,100133.45
2018-09-20T03:31:44.264Z,100131.30
2018-09-20T03:32:15.381Z,100129.12
2018-09-20T03:32:46.512Z,100128.69
2018-09-20T03:33:17.683Z,100133.44
2018-09-20T03:33:48.827Z,100133.02
2018-09-20T03:34:19.940Z,100131.70
2018-09-20T03:34:51.040Z,100126.84
2018-09-20T03:35:22.152Z,100129.09
2018-09-20T03:35:53.295Z,100127.76
2018-09-20T03:36:24.422Z,100129.12
2018-09-20T03:36:55.584Z,100128.33
2018-09-20T03:37:26.688Z,100127.02
2018-09-20T03:37:57.858Z,100127.91
2018-09-20T03:38:29.008Z,100128.39
2018-09-20T03:39:00.177Z,100127.56
2018-09-20T03:39:31.310Z,100125.46
2018-09-20T03:40:02.428Z,100125.11
2018-09-20T03:40:33.544Z,100129.98
2018-09-20T03:41:04.672Z,100124.80
2018-09-20T03:41:35.788Z,100127.00
2018-09-20T03:42:07.014Z,100130.51
2018-09-20T03:42:38.134Z,100128.36
2018-09-20T03:43:09.299Z,100129.72
2018-09-20T03:43:40.510Z,100129.30
2018-09-20T03:44:11.635Z,100130.67
2018-09-20T03:44:42.754Z,100131.98
2018-09-20T03:45:13.911Z,100135.11
2018-09-20T03:45:45.040Z,100135.64
2018-09-20T03:46:16.193Z,100136.09
2018-09-20T03:46:47.385Z,100137.47
2018-09-20T03:47:18.555Z,100138.87
2018-09-20T03:47:49.654Z,100138.94
2018-09-20T03:48:20.817Z,100137.72
2018-09-20T03:48:51.969Z,100142.02
2018-09-20T03:49:23.092Z,100138.52
2018-09-20T03:49:54.273Z,100138.52
2018-09-20T03:50:25.454Z,100141.08
2018-09-20T03:50:56.592Z,100141.97
2018-09-20T03:51:27.711Z,100139.35
2018-09-20T03:51:58.838Z,100136.73
2018-09-20T03:52:29.994Z,100141.08
2018-09-20T03:53:01.134Z,100137.58
2018-09-20T03:53:32.285Z,100141.48
2018-09-20T03:54:03.448Z,100137.99
2018-09-20T03:54:34.567Z,100141.44
2018-09-20T03:55:05.747Z,100138.36
2018-09-20T03:55:36.919Z,100144.48
2018-09-20T03:56:08.080Z,100137.20
2018-09-20T03:56:39.226Z,100143.73
2018-09-20T03:57:10.318Z,100140.72
2018-09-20T03:57:41.458Z,100138.61
2018-09-20T03:58:12.584Z,100142.97
2018-09-20T03:58:43.759Z,100146.11
2018-09-20T03:59:14.891Z,100144.80
2018-09-20T03:59:46.013Z,100141.39
2018-09-20T04:00:17.131Z,100147.03
2018-09-20T04:00:48.305Z,100144.05
2018-09-20T04:01:19.441Z,100144.89
2018-09-20T04:01:50.555Z,100143.17
2018-09-20T04:02:21.683Z,100142.75
2018-09-20T04:02:52.826Z,100143.69
2018-09-20T04:03:23.992Z,100143.17
2018-09-20T04:03:55.121Z,100142.37
2018-09-20T04:04:26.231Z,100139.81
2018-09-20T04:04:57.351Z,100146.36
2018-09-20T04:05:28.497Z,100141.60
2018-09-20T04:05:59.610Z,100144.27
2018-09-20T04:06:30.724Z,100148.65
2018-09-20T04:07:01.912Z,100150.43
2018-09-20T04:07:33.029Z,100148.29
2018-09-20T04:08:04.189Z,100146.19
2018-09-20T04:08:35.353Z,100144.92
2018-09-20T04:09:06.551Z,100144.92
2018-09-20T04:09:37.752Z,100144.94
2018-09-20T04:10:08.875Z,100148.86
2018-09-20T04:10:39.984Z,100148.44
2018-09-20T04:11:11.162Z,100146.38
2018-09-20T04:11:42.328Z,100142.05
2018-09-20T04:12:13.496Z,100144.66
2018-09-20T04:12:44.672Z,100143.77
2018-09-20T04:13:15.836Z,100143.72
2018-09-20T04:13:46.989Z,100144.13
2018-09-20T04:14:18.102Z,100143.20
2018-09-20T04:14:49.202Z,100137.46
2018-09-20T04:15:20.346Z,100142.68
2018-09-20T04:15:51.462Z,100143.05
2018-09-20T04:16:22.573Z,100142.17
2018-09-20T04:16:53.738Z,100146.51
2018-09-20T04:17:24.861Z,100142.63
2018-09-20T04:17:56.026Z,100141.84
2018-09-20T04:18:27.253Z,100141.47
2018-09-20T04:18:58.463Z,100145.44
2018-09-20T04:19:29.688Z,100141.10
2018-09-20T04:20:00.810Z,100139.80
2018-09-20T04:20:31.947Z,100142.84
2018-09-20T04:21:03.115Z,100145.44
2018-09-20T04:21:34.260Z,100148.86
2018-09-20T04:22:05.382Z,100142.73
2018-09-20T04:22:36.520Z,100141.33
2018-09-20T04:23:07.667Z,100141.22
2018-09-20T04:23:38.817Z,100141.13
2018-09-20T04:24:10.100Z,100147.47
2018-09-20T04:24:41.211Z,100147.25
2018-09-20T04:25:12.328Z,100142.95
2018-09-20T04:25:43.435Z,100140.81
2018-09-20T04:26:14.558Z,100143.86
2018-09-20T04:26:45.728Z,100142.14
2018-09-20T04:27:16.900Z,100140.80
2018-09-20T04:27:48.004Z,100141.58
2018-09-20T04:28:19.185Z,100139.25
2018-09-20T04:28:50.305Z,100142.19
2018-09-20T04:29:21.841Z,100140.28
2018-09-20T04:29:52.962Z,100141.85
2018-09-20T04:30:24.091Z,100137.31
2018-09-20T04:30:55.211Z,100141.02
2018-09-20T04:31:26.332Z,100136.98
2018-09-20T04:31:57.492Z,100140.71
2018-09-20T04:32:28.650Z,100139.78
2018-09-20T04:32:59.766Z,100139.68
2018-09-20T04:33:30.909Z,100137.11
2018-09-20T04:34:02.096Z,100141.67
2018-09-20T04:34:33.213Z,100147.41
2018-09-20T04:35:04.332Z,100140.56
2018-09-20T04:35:35.445Z,100142.78
2018-09-20T04:36:06.691Z,100134.60
2018-09-20T04:36:37.926Z,100138.63
2018-09-20T04:37:09.046Z,100139.64
2018-09-20T04:37:40.193Z,100143.01
2018-09-20T04:38:11.369Z,100140.41
2018-09-20T04:38:42.504Z,100141.83
2018-09-20T04:39:13.608Z,100144.22
2018-09-20T04:39:44.710Z,100144.64
2018-09-20T04:40:15.877Z,100140.34
2018-09-20T04:40:47.021Z,100134.30
2018-09-20T04:41:18.211Z,100141.50
2018-09-20T04:41:49.333Z,100142.16
2018-09-20T04:42:20.435Z,100138.33
2018-09-20T04:42:51.539Z,100145.13
2018-09-20T04:43:22.639Z,100136.87
2018-09-20T04:43:53.788Z,100136.10
2018-09-20T04:44:24.917Z,100136.09
2018-09-20T04:44:56.078Z,100136.50
2018-09-20T04:45:27.220Z,100136.83
2018-09-20T04:45:58.320Z,100130.91
2018-09-20T04:46:29.447Z,100137.62
2018-09-20T04:47:00.568Z,100134.46
2018-09-20T04:47:31.732Z,100132.86
2018-09-20T04:48:02.922Z,100138.67
2018-09-20T04:48:34.144Z,100136.02
2018-09-20T04:49:05.270Z,100132.46
2018-09-20T04:49:36.422Z,100133.52
2018-09-20T04:50:07.590Z,100136.03
2018-09-20T04:50:38.807Z,100132.91
2018-09-20T04:51:09.933Z,100130.01
2018-09-20T04:51:41.100Z,100134.48
2018-09-20T04:52:12.216Z,100135.88
2018-09-20T04:52:43.341Z,100132.97
2018-09-20T04:53:14.453Z,100132.69
2018-09-20T04:53:45.559Z,100130.53
2018-09-20T04:54:16.722Z,100138.48
2018-09-20T04:54:47.843Z,100138.99
2018-09-20T04:55:18.943Z,100135.98
2018-09-20T04:55:50.089Z,100138.66
2018-09-20T04:56:21.277Z,100131.85
2018-09-20T04:56:52.411Z,100136.23
2018-09-20T04:57:23.525Z,100131.63
2018-09-20T04:57:54.640Z,100131.27
2018-09-20T04:58:25.759Z,100131.00
2018-09-20T04:58:56.971Z,100139.08
2018-09-20T04:59:28.151Z,100137.28
2018-09-20T04:59:59.334Z,100135.13
2018-09-20T05:00:30.434Z,100137.52
2018-09-20T05:01:01.545Z,100133.17
2018-09-20T05:01:32.665Z,100134.52
2018-09-20T05:02:03.831Z,100137.94
2018-09-20T05:02:34.945Z,100142.42
2018-09-20T05:03:06.111Z,100136.16
2018-09-20T05:03:37.237Z,100136.41
2018-09-20T05:04:08.368Z,100134.77
2018-09-20T05:04:39.606Z,100139.00
2018-09-20T05:05:10.739Z,100140.59
2018-09-20T05:05:41.852Z,100137.07
2018-09-20T05:06:12.978Z,100134.42
2018-09-20T05:06:44.080Z,100146.19
2018-09-20T05:07:15.196Z,100138.41
2018-09-20T05:07:46.307Z,100141.95
2018-09-20T05:08:17.541Z,100140.13
2018-09-20T05:08:48.673Z,100142.56
2018-09-20T05:09:19.818Z,100116.02
2018-09-20T05:09:50.964Z,100142.75
2018-09-20T05:10:22.078Z,100139.34
2018-09-20T05:10:53.206Z,100145.37
2018-09-20T05:11:24.387Z,100145.45
2018-09-20T05:11:55.535Z,100147.17
2018-09-20T05:12:26.635Z,100151.45
2018-09-20T05:12:57.868Z,100149.08
2018-09-20T05:13:29.044Z,100143.88
2018-09-20T05:14:00.146Z,100147.91
2018-09-20T05:14:31.318Z,100150.33
2018-09-20T05:15:02.476Z,100151.06
2018-09-20T05:15:33.599Z,100148.68
2018-09-20T05:16:04.764Z,100145.98
2018-09-20T05:16:35.932Z,100151.57
2018-09-20T05:17:07.039Z,100151.91
2018-09-20T05:17:38.212Z,100147.55
2018-09-20T05:18:09.382Z,100147.48
2018-09-20T05:18:40.588Z,100148.28
2018-09-20T05:19:11.701Z,100149.19
2018-09-20T05:19:42.847Z,100144.33
2018-09-20T05:20:14.025Z,100145.25
2018-09-20T05:20:45.231Z,100143.27
2018-09-20T05:21:16.400Z,100144.59
2018-09-20T05:21:47.547Z,100137.41
2018-09-20T05:22:18.700Z,100145.39
2018-09-20T05:22:49.876Z,100140.27
2018-09-20T05:23:21.034Z,100141.30
2018-09-20T05:23:52.174Z,100146.16
2018-09-20T05:24:23.381Z,100144.98
2018-09-20T05:24:54.529Z,100144.19
2018-09-20T05:25:25.720Z,100145.09
2018-09-20T05:25:56.896Z,100141.04
2018-09-20T05:26:28.072Z,100140.09
2018-09-20T05:26:59.192Z,100141.80
2018-09-20T05:27:30.351Z,100141.36
2018-09-20T05:28:01.486Z,100140.70
2018-09-20T05:28:32.607Z,100140.75
2018-09-20T05:29:03.739Z,100144.36
2018-09-20T05:29:34.856Z,100142.20
2018-09-20T05:30:05.972Z,100144.44
2018-09-20T05:30:37.102Z,100144.03
2018-09-20T05:31:08.224Z,100145.09
2018-09-20T05:31:39.377Z,100140.45
2018-09-20T05:32:10.550Z,100144.50
2018-09-20T05:32:41.734Z,100146.88
2018-09-20T05:33:12.944Z,100146.41
2018-09-20T05:33:44.057Z,100142.86
2018-09-20T05:34:15.220Z,100144.58
2018-09-20T05:34:46.385Z,100147.55
2018-09-20T05:35:17.592Z,100150.62
2018-09-20T05:35:48.729Z,100160.49
2018-09-20T05:36:19.923Z,100151.35
2018-09-20T05:36:51.118Z,100154.53
2018-09-20T05:37:22.267Z,100157.90
2018-09-20T05:37:53.471Z,100151.36
2018-09-20T05:38:24.630Z,100157.09
2018-09-20T05:38:55.769Z,100149.78
2018-09-20T05:39:26.905Z,100155.52
2018-09-20T05:39:58.106Z,100145.78
2018-09-20T05:40:29.214Z,100154.34
2018-09-20T05:41:00.323Z,100149.28
2018-09-20T05:41:31.588Z,100150.13
2018-09-20T05:42:03.060Z,100150.92
2018-09-20T05:42:34.243Z,100154.86
2018-09-20T05:43:05.451Z,100153.94
2018-09-20T05:43:36.583Z,100155.39
2018-09-20T05:44:07.717Z,100154.59
2018-09-20T05:44:38.845Z,100157.16
2018-09-20T05:45:10.077Z,100156.52
2018-09-20T05:45:41.207Z,100155.52
2018-09-20T05:46:12.335Z,100156.02
2018-09-20T05:46:43.706Z,100148.98
2018-09-20T05:47:15.226Z,100153.58
2018-09-20T05:47:46.464Z,100149.91
2018-09-20T05:48:17.677Z,100155.91
2018-09-20T05:48:48.816Z,100149.03
2018-09-20T05:49:19.932Z,100156.79
2018-09-20T05:49:51.037Z,100155.67
2018-09-20T05:50:22.162Z,100157.62
2018-09-20T05:50:53.417Z,100151.11
2018-09-20T05:51:24.542Z,100154.52
2018-09-20T05:51:55.661Z,100152.23
2018-09-20T05:52:26.796Z,100151.36
2018-09-20T05:52:57.985Z,100156.11
2018-09-20T05:53:29.142Z,100148.11
2018-09-20T05:54:00.275Z,100153.07
2018-09-20T05:54:31.401Z,100152.07
2018-09-20T05:55:02.520Z,100152.11
2018-09-20T05:55:33.627Z,100148.39